sensor_id;sensor_type;location;lat;lon;timestamp;P1;durP1;ratioP1;P2;durP2;ratioP2
8401;SDS011;4238;48.404;9.498;2022-08-21T00:00:18;2.35;;;2.25;;
8401;SDS011;4238;48.404;9.498;2022-08-21T00:02:48;2.80;;;2.60;;
8401;SDS011;4238;48.404;9.498;2022-08-21T00:05:17;2.60;;;2.40;;
8401;SDS011;4238;48.404;9.498;2022-08-21T00:07:44;3.07;;;2.80;;
8401;SDS011;4238;48.404;9.498;2022-08-21T00:10:12;3.50;;;2.83;;
8401;SDS011;4238;48.404;9.498;2022-08-21T00:12:40;3.05;;;2.85;;
8401;SDS011;4238;48.404;9.498;2022-08-21T00:15:10;2.63;;;2.40;;
8401;SDS011;4238;48.404;9.498;2022-08-21T00:17:38;2.97;;;2.65;;
8401;SDS011;4238;48.404;9.498;2022-08-21T00:20:06;2.97;;;2.70;;
8401;SDS011;4238;48.404;9.498;2022-08-21T00:22:35;2.95;;;2.75;;
8401;SDS011;4238;48.404;9.498;2022-08-21T00:25:02;3.22;;;3.03;;
8401;SDS011;4238;48.404;9.498;2022-08-21T00:27:31;2.97;;;2.78;;
8401;SDS011;4238;48.404;9.498;2022-08-21T00:29:58;3.07;;;2.83;;
8401;SDS011;4238;48.404;9.498;2022-08-21T00:32:27;3.10;;;2.80;;
8401;SDS011;4238;48.404;9.498;2022-08-21T00:34:54;2.93;;;2.73;;
8401;SDS011;4238;48.404;9.498;2022-08-21T00:37:21;2.90;;;2.70;;
8401;SDS011;4238;48.404;9.498;2022-08-21T00:39:48;2.80;;;2.60;;
8401;SDS011;4238;48.404;9.498;2022-08-21T00:42:15;3.20;;;2.90;;
8401;SDS011;4238;48.404;9.498;2022-08-21T00:44:45;3.10;;;2.87;;
8401;SDS011;4238;48.404;9.498;2022-08-21T00:47:14;2.88;;;2.67;;
8401;SDS011;4238;48.404;9.498;2022-08-21T00:49:42;3.10;;;2.83;;
8401;SDS011;4238;48.404;9.498;2022-08-21T00:52:11;2.50;;;2.30;;
8401;SDS011;4238;48.404;9.498;2022-08-21T00:54:41;2.80;;;2.60;;
8401;SDS011;4238;48.404;9.498;2022-08-21T00:57:14;2.90;;;2.70;;
8401;SDS011;4238;48.404;9.498;2022-08-21T00:59:47;2.75;;;2.55;;
8401;SDS011;4238;48.404;9.498;2022-08-21T01:02:17;2.80;;;2.60;;
8401;SDS011;4238;48.404;9.498;2022-08-21T01:04:46;2.67;;;2.45;;
8401;SDS011;4238;48.404;9.498;2022-08-21T01:07:14;3.00;;;2.70;;
8401;SDS011;4238;48.404;9.498;2022-08-21T01:09:41;3.20;;;2.72;;
8401;SDS011;4238;48.404;9.498;2022-08-21T01:12:09;3.05;;;2.85;;
8401;SDS011;4238;48.404;9.498;2022-08-21T01:14:36;2.73;;;2.57;;
8401;SDS011;4238;48.404;9.498;2022-08-21T01:17:04;2.97;;;2.78;;
8401;SDS011;4238;48.404;9.498;2022-08-21T01:19:32;2.93;;;2.73;;
8401;SDS011;4238;48.404;9.498;2022-08-21T01:22:01;2.33;;;2.23;;
8401;SDS011;4238;48.404;9.498;2022-08-21T01:24:28;2.37;;;2.17;;
8401;SDS011;4238;48.404;9.498;2022-08-21T01:26:56;3.03;;;2.80;;
8401;SDS011;4238;48.404;9.498;2022-08-21T01:29:28;3.70;;;2.93;;
8401;SDS011;4238;48.404;9.498;2022-08-21T01:31:59;3.00;;;2.70;;
8401;SDS011;4238;48.404;9.498;2022-08-21T01:34:29;3.93;;;2.73;;
8401;SDS011;4238;48.404;9.498;2022-08-21T01:36:56;3.03;;;2.83;;
8401;SDS011;4238;48.404;9.498;2022-08-21T01:39:25;3.30;;;2.60;;
8401;SDS011;4238;48.404;9.498;2022-08-21T01:41:52;3.10;;;2.90;;
8401;SDS011;4238;48.404;9.498;2022-08-21T01:44:20;2.80;;;2.70;;
8401;SDS011;4238;48.404;9.498;2022-08-21T01:46:47;2.53;;;2.33;;
8401;SDS011;4238;48.404;9.498;2022-08-21T01:49:14;4.10;;;2.80;;
8401;SDS011;4238;48.404;9.498;2022-08-21T01:51:41;3.95;;;2.95;;
8401;SDS011;4238;48.404;9.498;2022-08-21T01:54:09;2.60;;;2.40;;
8401;SDS011;4238;48.404;9.498;2022-08-21T01:56:38;2.42;;;2.20;;
8401;SDS011;4238;48.404;9.498;2022-08-21T01:59:06;2.50;;;2.38;;
8401;SDS011;4238;48.404;9.498;2022-08-21T02:01:34;2.90;;;2.53;;
8401;SDS011;4238;48.404;9.498;2022-08-21T02:04:01;2.57;;;2.47;;
8401;SDS011;4238;48.404;9.498;2022-08-21T02:06:29;2.50;;;2.30;;
8401;SDS011;4238;48.404;9.498;2022-08-21T02:08:56;2.85;;;2.65;;
8401;SDS011;4238;48.404;9.498;2022-08-21T02:11:23;2.87;;;2.67;;
8401;SDS011;4238;48.404;9.498;2022-08-21T02:13:51;2.67;;;2.50;;
8401;SDS011;4238;48.404;9.498;2022-08-21T02:16:18;2.47;;;2.30;;
8401;SDS011;4238;48.404;9.498;2022-08-21T02:18:45;3.23;;;2.93;;
8401;SDS011;4238;48.404;9.498;2022-08-21T02:21:13;2.80;;;2.60;;
8401;SDS011;4238;48.404;9.498;2022-08-21T02:23:40;3.00;;;2.47;;
8401;SDS011;4238;48.404;9.498;2022-08-21T02:26:07;2.97;;;2.70;;
8401;SDS011;4238;48.404;9.498;2022-08-21T02:28:35;2.80;;;2.60;;
8401;SDS011;4238;48.404;9.498;2022-08-21T02:31:04;2.93;;;2.73;;
8401;SDS011;4238;48.404;9.498;2022-08-21T02:33:32;5.87;;;2.60;;
8401;SDS011;4238;48.404;9.498;2022-08-21T02:35:59;2.60;;;2.40;;
8401;SDS011;4238;48.404;9.498;2022-08-21T02:38:28;2.97;;;2.70;;
8401;SDS011;4238;48.404;9.498;2022-08-21T02:40:58;2.70;;;2.50;;
8401;SDS011;4238;48.404;9.498;2022-08-21T02:43:26;2.50;;;2.33;;
8401;SDS011;4238;48.404;9.498;2022-08-21T02:45:55;2.80;;;2.50;;
8401;SDS011;4238;48.404;9.498;2022-08-21T02:48:26;2.57;;;2.37;;
8401;SDS011;4238;48.404;9.498;2022-08-21T02:50:55;2.97;;;2.77;;
8401;SDS011;4238;48.404;9.498;2022-08-21T02:53:24;2.80;;;2.37;;
8401;SDS011;4238;48.404;9.498;2022-08-21T02:55:52;3.50;;;2.97;;
8401;SDS011;4238;48.404;9.498;2022-08-21T02:58:21;2.63;;;2.43;;
8401;SDS011;4238;48.404;9.498;2022-08-21T03:00:49;3.30;;;2.70;;
8401;SDS011;4238;48.404;9.498;2022-08-21T03:03:16;2.87;;;2.67;;
8401;SDS011;4238;48.404;9.498;2022-08-21T03:05:45;2.97;;;2.77;;
8401;SDS011;4238;48.404;9.498;2022-08-21T03:08:12;2.90;;;2.70;;
8401;SDS011;4238;48.404;9.498;2022-08-21T03:10:41;2.67;;;2.47;;
8401;SDS011;4238;48.404;9.498;2022-08-21T03:13:10;2.60;;;2.40;;
8401;SDS011;4238;48.404;9.498;2022-08-21T03:15:37;2.50;;;2.30;;
8401;SDS011;4238;48.404;9.498;2022-08-21T03:18:05;2.97;;;2.73;;
8401;SDS011;4238;48.404;9.498;2022-08-21T03:20:32;3.37;;;3.07;;
8401;SDS011;4238;48.404;9.498;2022-08-21T03:23:03;2.30;;;1.97;;
8401;SDS011;4238;48.404;9.498;2022-08-21T03:25:31;3.17;;;2.97;;
8401;SDS011;4238;48.404;9.498;2022-08-21T03:27:58;3.03;;;2.60;;
8401;SDS011;4238;48.404;9.498;2022-08-21T03:30:25;2.43;;;2.33;;
8401;SDS011;4238;48.404;9.498;2022-08-21T03:32:53;3.27;;;2.57;;
8401;SDS011;4238;48.404;9.498;2022-08-21T03:35:20;3.30;;;3.00;;
8401;SDS011;4238;48.404;9.498;2022-08-21T03:37:46;3.17;;;2.73;;
8401;SDS011;4238;48.404;9.498;2022-08-21T03:40:16;2.70;;;2.60;;
8401;SDS011;4238;48.404;9.498;2022-08-21T03:42:45;3.47;;;2.90;;
8401;SDS011;4238;48.404;9.498;2022-08-21T03:45:13;3.53;;;2.57;;
8401;SDS011;4238;48.404;9.498;2022-08-21T03:47:50;2.77;;;2.57;;
8401;SDS011;4238;48.404;9.498;2022-08-21T03:50:18;3.07;;;2.80;;
8401;SDS011;4238;48.404;9.498;2022-08-21T03:52:45;3.03;;;2.77;;
8401;SDS011;4238;48.404;9.498;2022-08-21T03:55:12;3.13;;;2.87;;
8401;SDS011;4238;48.404;9.498;2022-08-21T03:57:40;2.63;;;2.43;;
8401;SDS011;4238;48.404;9.498;2022-08-21T04:00:08;2.83;;;2.50;;
8401;SDS011;4238;48.404;9.498;2022-08-21T04:02:38;3.03;;;2.83;;
8401;SDS011;4238;48.404;9.498;2022-08-21T04:05:06;3.43;;;2.60;;
8401;SDS011;4238;48.404;9.498;2022-08-21T04:07:33;2.60;;;2.40;;
8401;SDS011;4238;48.404;9.498;2022-08-21T04:10:01;3.57;;;2.60;;
8401;SDS011;4238;48.404;9.498;2022-08-21T04:12:28;3.03;;;2.83;;
8401;SDS011;4238;48.404;9.498;2022-08-21T04:14:57;3.07;;;2.77;;
8401;SDS011;4238;48.404;9.498;2022-08-21T04:17:24;3.03;;;2.83;;
8401;SDS011;4238;48.404;9.498;2022-08-21T04:19:51;3.40;;;3.20;;
8401;SDS011;4238;48.404;9.498;2022-08-21T04:22:19;2.87;;;2.67;;
8401;SDS011;4238;48.404;9.498;2022-08-21T04:24:46;3.13;;;2.90;;
8401;SDS011;4238;48.404;9.498;2022-08-21T04:27:13;3.10;;;2.77;;
8401;SDS011;4238;48.404;9.498;2022-08-21T04:29:40;3.13;;;2.83;;
8401;SDS011;4238;48.404;9.498;2022-08-21T04:32:08;3.33;;;2.80;;
8401;SDS011;4238;48.404;9.498;2022-08-21T04:34:35;2.80;;;2.67;;
8401;SDS011;4238;48.404;9.498;2022-08-21T04:37:02;4.73;;;3.10;;
8401;SDS011;4238;48.404;9.498;2022-08-21T04:39:29;4.67;;;2.70;;
8401;SDS011;4238;48.404;9.498;2022-08-21T04:41:56;2.93;;;2.50;;
8401;SDS011;4238;48.404;9.498;2022-08-21T04:44:23;3.70;;;2.37;;
8401;SDS011;4238;48.404;9.498;2022-08-21T04:46:50;2.90;;;2.70;;
8401;SDS011;4238;48.404;9.498;2022-08-21T04:49:18;2.80;;;2.57;;
8401;SDS011;4238;48.404;9.498;2022-08-21T04:51:45;3.00;;;2.80;;
8401;SDS011;4238;48.404;9.498;2022-08-21T04:54:13;2.70;;;2.50;;
8401;SDS011;4238;48.404;9.498;2022-08-21T04:56:44;3.13;;;2.60;;
8401;SDS011;4238;48.404;9.498;2022-08-21T04:59:17;4.67;;;2.87;;
8401;SDS011;4238;48.404;9.498;2022-08-21T05:01:47;3.57;;;2.80;;
8401;SDS011;4238;48.404;9.498;2022-08-21T05:04:15;3.30;;;3.10;;
8401;SDS011;4238;48.404;9.498;2022-08-21T05:06:49;2.80;;;2.60;;
8401;SDS011;4238;48.404;9.498;2022-08-21T05:09:19;3.30;;;3.00;;
8401;SDS011;4238;48.404;9.498;2022-08-21T05:11:48;3.03;;;2.30;;
8401;SDS011;4238;48.404;9.498;2022-08-21T05:14:16;3.50;;;3.20;;
8401;SDS011;4238;48.404;9.498;2022-08-21T05:16:44;2.93;;;2.73;;
8401;SDS011;4238;48.404;9.498;2022-08-21T05:19:11;3.37;;;3.13;;
8401;SDS011;4238;48.404;9.498;2022-08-21T05:21:40;3.77;;;3.47;;
8401;SDS011;4238;48.404;9.498;2022-08-21T05:24:08;3.40;;;3.10;;
8401;SDS011;4238;48.404;9.498;2022-08-21T05:26:36;3.37;;;2.67;;
8401;SDS011;4238;48.404;9.498;2022-08-21T05:29:04;3.40;;;3.10;;
8401;SDS011;4238;48.404;9.498;2022-08-21T05:31:31;3.70;;;3.00;;
8401;SDS011;4238;48.404;9.498;2022-08-21T05:33:58;3.50;;;3.07;;
8401;SDS011;4238;48.404;9.498;2022-08-21T05:36:25;3.87;;;2.93;;
8401;SDS011;4238;48.404;9.498;2022-08-21T05:38:53;3.70;;;3.40;;
8401;SDS011;4238;48.404;9.498;2022-08-21T05:41:20;3.37;;;3.07;;
8401;SDS011;4238;48.404;9.498;2022-08-21T05:43:47;3.93;;;3.03;;
8401;SDS011;4238;48.404;9.498;2022-08-21T05:46:15;3.30;;;3.00;;
8401;SDS011;4238;48.404;9.498;2022-08-21T05:48:42;4.68;;;3.03;;
8401;SDS011;4238;48.404;9.498;2022-08-21T05:51:10;3.83;;;3.20;;
8401;SDS011;4238;48.404;9.498;2022-08-21T05:53:39;3.35;;;3.10;;
8401;SDS011;4238;48.404;9.498;2022-08-21T05:56:08;3.53;;;3.25;;
8401;SDS011;4238;48.404;9.498;2022-08-21T05:58:36;3.53;;;3.22;;
8401;SDS011;4238;48.404;9.498;2022-08-21T06:01:03;3.40;;;2.78;;
8401;SDS011;4238;48.404;9.498;2022-08-21T06:03:31;3.20;;;3.00;;
8401;SDS011;4238;48.404;9.498;2022-08-21T06:06:00;3.17;;;2.95;;
8401;SDS011;4238;48.404;9.498;2022-08-21T06:08:28;3.65;;;3.35;;
8401;SDS011;4238;48.404;9.498;2022-08-21T06:10:56;3.85;;;3.13;;
8401;SDS011;4238;48.404;9.498;2022-08-21T06:13:26;5.00;;;3.38;;
8401;SDS011;4238;48.404;9.498;2022-08-21T06:16:00;3.75;;;3.45;;
8401;SDS011;4238;48.404;9.498;2022-08-21T06:18:28;3.30;;;3.00;;
8401;SDS011;4238;48.404;9.498;2022-08-21T06:20:55;3.25;;;2.95;;
8401;SDS011;4238;48.404;9.498;2022-08-21T06:23:22;3.17;;;2.90;;
8401;SDS011;4238;48.404;9.498;2022-08-21T06:25:49;3.75;;;3.45;;
8401;SDS011;4238;48.404;9.498;2022-08-21T06:28:16;4.40;;;3.40;;
8401;SDS011;4238;48.404;9.498;2022-08-21T06:30:46;3.30;;;3.10;;
8401;SDS011;4238;48.404;9.498;2022-08-21T06:33:13;3.08;;;2.78;;
8401;SDS011;4238;48.404;9.498;2022-08-21T06:35:40;3.55;;;3.25;;
8401;SDS011;4238;48.404;9.498;2022-08-21T06:38:07;4.13;;;3.72;;
8401;SDS011;4238;48.404;9.498;2022-08-21T06:40:34;3.58;;;3.28;;
8401;SDS011;4238;48.404;9.498;2022-08-21T06:43:05;3.97;;;3.30;;
8401;SDS011;4238;48.404;9.498;2022-08-21T06:45:33;3.25;;;2.95;;
8401;SDS011;4238;48.404;9.498;2022-08-21T06:48:01;3.38;;;3.10;;
8401;SDS011;4238;48.404;9.498;2022-08-21T06:50:29;3.28;;;3.03;;
8401;SDS011;4238;48.404;9.498;2022-08-21T06:53:00;3.28;;;3.00;;
8401;SDS011;4238;48.404;9.498;2022-08-21T06:55:28;4.00;;;3.10;;
8401;SDS011;4238;48.404;9.498;2022-08-21T06:57:55;4.15;;;2.90;;
8401;SDS011;4238;48.404;9.498;2022-08-21T07:00:22;3.65;;;3.03;;
8401;SDS011;4238;48.404;9.498;2022-08-21T07:02:49;3.13;;;2.92;;
8401;SDS011;4238;48.404;9.498;2022-08-21T07:05:18;4.28;;;3.05;;
8401;SDS011;4238;48.404;9.498;2022-08-21T07:07:45;3.53;;;2.97;;
8401;SDS011;4238;48.404;9.498;2022-08-21T07:10:12;3.67;;;3.38;;
8401;SDS011;4238;48.404;9.498;2022-08-21T07:12:40;4.60;;;3.22;;
8401;SDS011;4238;48.404;9.498;2022-08-21T07:15:07;5.00;;;3.08;;
8401;SDS011;4238;48.404;9.498;2022-08-21T07:17:36;3.92;;;3.13;;
8401;SDS011;4238;48.404;9.498;2022-08-21T07:20:03;4.15;;;3.25;;
8401;SDS011;4238;48.404;9.498;2022-08-21T07:22:32;4.18;;;3.53;;
8401;SDS011;4238;48.404;9.498;2022-08-21T07:25:01;3.70;;;3.40;;
8401;SDS011;4238;48.404;9.498;2022-08-21T07:27:29;3.72;;;3.17;;
8401;SDS011;4238;48.404;9.498;2022-08-21T07:29:56;3.50;;;3.25;;
8401;SDS011;4238;48.404;9.498;2022-08-21T07:32:23;3.65;;;3.35;;
8401;SDS011;4238;48.404;9.498;2022-08-21T07:34:50;5.65;;;3.60;;
8401;SDS011;4238;48.404;9.498;2022-08-21T07:37:17;3.55;;;3.20;;
8401;SDS011;4238;48.404;9.498;2022-08-21T07:39:46;3.42;;;3.05;;
8401;SDS011;4238;48.404;9.498;2022-08-21T07:42:14;3.38;;;3.08;;
8401;SDS011;4238;48.404;9.498;2022-08-21T07:44:42;3.20;;;3.00;;
8401;SDS011;4238;48.404;9.498;2022-08-21T07:47:09;3.67;;;3.38;;
8401;SDS011;4238;48.404;9.498;2022-08-21T07:49:36;4.95;;;3.67;;
8401;SDS011;4238;48.404;9.498;2022-08-21T07:52:03;3.50;;;3.17;;
8401;SDS011;4238;48.404;9.498;2022-08-21T07:54:30;3.60;;;3.25;;
8401;SDS011;4238;48.404;9.498;2022-08-21T07:56:58;3.42;;;3.13;;
8401;SDS011;4238;48.404;9.498;2022-08-21T07:59:25;4.25;;;3.50;;
8401;SDS011;4238;48.404;9.498;2022-08-21T08:01:52;5.07;;;3.40;;
8401;SDS011;4238;48.404;9.498;2022-08-21T08:04:19;4.07;;;3.67;;
8401;SDS011;4238;48.404;9.498;2022-08-21T08:06:46;4.07;;;3.42;;
8401;SDS011;4238;48.404;9.498;2022-08-21T08:09:13;4.95;;;3.20;;
8401;SDS011;4238;48.404;9.498;2022-08-21T08:11:42;4.20;;;3.60;;
8401;SDS011;4238;48.404;9.498;2022-08-21T08:14:10;3.85;;;3.40;;
8401;SDS011;4238;48.404;9.498;2022-08-21T08:16:37;4.53;;;3.90;;
8401;SDS011;4238;48.404;9.498;2022-08-21T08:19:04;4.25;;;3.60;;
8401;SDS011;4238;48.404;9.498;2022-08-21T08:21:31;3.95;;;3.60;;
8401;SDS011;4238;48.404;9.498;2022-08-21T08:23:58;5.15;;;3.28;;
8401;SDS011;4238;48.404;9.498;2022-08-21T08:26:25;3.80;;;3.42;;
8401;SDS011;4238;48.404;9.498;2022-08-21T08:28:53;3.58;;;3.28;;
8401;SDS011;4238;48.404;9.498;2022-08-21T08:31:21;4.15;;;3.75;;
8401;SDS011;4238;48.404;9.498;2022-08-21T08:33:48;5.38;;;4.00;;
8401;SDS011;4238;48.404;9.498;2022-08-21T08:36:16;4.15;;;3.75;;
8401;SDS011;4238;48.404;9.498;2022-08-21T08:38:45;5.35;;;3.90;;
8401;SDS011;4238;48.404;9.498;2022-08-21T08:41:14;5.20;;;3.67;;
8401;SDS011;4238;48.404;9.498;2022-08-21T08:43:44;4.35;;;3.80;;
8401;SDS011;4238;48.404;9.498;2022-08-21T08:46:17;4.13;;;3.60;;
8401;SDS011;4238;48.404;9.498;2022-08-21T08:48:51;3.70;;;3.20;;
8401;SDS011;4238;48.404;9.498;2022-08-21T08:51:22;4.28;;;3.78;;
8401;SDS011;4238;48.404;9.498;2022-08-21T08:53:54;3.63;;;3.25;;
8401;SDS011;4238;48.404;9.498;2022-08-21T08:56:26;3.47;;;3.17;;
8401;SDS011;4238;48.404;9.498;2022-08-21T08:58:56;3.95;;;3.65;;
8401;SDS011;4238;48.404;9.498;2022-08-21T09:01:27;3.85;;;3.55;;
8401;SDS011;4238;48.404;9.498;2022-08-21T09:03:56;4.10;;;3.42;;
8401;SDS011;4238;48.404;9.498;2022-08-21T09:06:34;4.18;;;3.65;;
8401;SDS011;4238;48.404;9.498;2022-08-21T09:09:09;4.10;;;3.55;;
8401;SDS011;4238;48.404;9.498;2022-08-21T09:11:48;5.32;;;3.92;;
8401;SDS011;4238;48.404;9.498;2022-08-21T09:14:25;3.20;;;3.00;;
8401;SDS011;4238;48.404;9.498;2022-08-21T09:17:02;3.63;;;3.42;;
8401;SDS011;4238;48.404;9.498;2022-08-21T09:19:43;3.60;;;3.25;;
8401;SDS011;4238;48.404;9.498;2022-08-21T09:22:24;3.92;;;3.35;;
8401;SDS011;4238;48.404;9.498;2022-08-21T09:25:01;3.50;;;3.30;;
8401;SDS011;4238;48.404;9.498;2022-08-21T09:27:33;3.90;;;3.50;;
8401;SDS011;4238;48.404;9.498;2022-08-21T09:30:02;3.70;;;3.40;;
8401;SDS011;4238;48.404;9.498;2022-08-21T09:32:31;5.30;;;4.00;;
8401;SDS011;4238;48.404;9.498;2022-08-21T09:35:03;4.55;;;3.78;;
8401;SDS011;4238;48.404;9.498;2022-08-21T09:37:34;3.95;;;3.30;;
8401;SDS011;4238;48.404;9.498;2022-08-21T09:40:15;3.88;;;3.15;;
8401;SDS011;4238;48.404;9.498;2022-08-21T09:42:53;3.88;;;3.15;;
8401;SDS011;4238;48.404;9.498;2022-08-21T09:45:21;4.18;;;3.35;;
8401;SDS011;4238;48.404;9.498;2022-08-21T09:47:48;5.28;;;3.50;;
8401;SDS011;4238;48.404;9.498;2022-08-21T09:50:17;4.13;;;3.28;;
8401;SDS011;4238;48.404;9.498;2022-08-21T09:52:49;4.65;;;3.70;;
8401;SDS011;4238;48.404;9.498;2022-08-21T09:55:20;6.75;;;3.88;;
8401;SDS011;4238;48.404;9.498;2022-08-21T09:58:18;3.17;;;2.92;;
8401;SDS011;4238;48.404;9.498;2022-08-21T10:00:47;4.45;;;3.50;;
8401;SDS011;4238;48.404;9.498;2022-08-21T10:03:24;3.65;;;3.35;;
8401;SDS011;4238;48.404;9.498;2022-08-21T10:05:55;4.00;;;3.60;;
8401;SDS011;4238;48.404;9.498;2022-08-21T10:08:24;3.47;;;3.20;;
8401;SDS011;4238;48.404;9.498;2022-08-21T10:10:54;3.63;;;3.13;;
8401;SDS011;4238;48.404;9.498;2022-08-21T10:13:26;4.20;;;3.80;;
8401;SDS011;4238;48.404;9.498;2022-08-21T10:16:02;3.53;;;3.15;;
8401;SDS011;4238;48.404;9.498;2022-08-21T10:18:40;3.78;;;3.47;;
8401;SDS011;4238;48.404;9.498;2022-08-21T10:21:14;5.22;;;3.08;;
8401;SDS011;4238;48.404;9.498;2022-08-21T10:23:51;3.80;;;3.25;;
8401;SDS011;4238;48.404;9.498;2022-08-21T10:26:31;4.18;;;3.47;;
8401;SDS011;4238;48.404;9.498;2022-08-21T10:29:14;6.38;;;3.28;;
8401;SDS011;4238;48.404;9.498;2022-08-21T10:31:52;4.05;;;3.20;;
8401;SDS011;4238;48.404;9.498;2022-08-21T10:34:32;3.17;;;2.92;;
8401;SDS011;4238;48.404;9.498;2022-08-21T10:37:12;3.92;;;3.35;;
8401;SDS011;4238;48.404;9.498;2022-08-21T10:39:52;4.78;;;3.30;;
8401;SDS011;4238;48.404;9.498;2022-08-21T10:42:28;3.50;;;3.20;;
8401;SDS011;4238;48.404;9.498;2022-08-21T10:45:06;3.92;;;2.63;;
8401;SDS011;4238;48.404;9.498;2022-08-21T10:47:41;3.60;;;3.10;;
8401;SDS011;4238;48.404;9.498;2022-08-21T10:50:16;3.80;;;3.38;;
8401;SDS011;4238;48.404;9.498;2022-08-21T10:52:56;3.33;;;3.10;;
8401;SDS011;4238;48.404;9.498;2022-08-21T10:55:36;3.40;;;3.20;;
8401;SDS011;4238;48.404;9.498;2022-08-21T10:58:08;3.20;;;3.00;;
8401;SDS011;4238;48.404;9.498;2022-08-21T11:00:39;4.10;;;3.67;;
8401;SDS011;4238;48.404;9.498;2022-08-21T11:03:13;4.43;;;3.03;;
8401;SDS011;4238;48.404;9.498;2022-08-21T11:05:44;3.10;;;2.90;;
8401;SDS011;4238;48.404;9.498;2022-08-21T11:08:18;3.60;;;3.30;;
8401;SDS011;4238;48.404;9.498;2022-08-21T11:10:50;4.43;;;4.03;;
8401;SDS011;4238;48.404;9.498;2022-08-21T11:13:25;3.65;;;3.35;;
8401;SDS011;4238;48.404;9.498;2022-08-21T11:16:00;4.05;;;3.60;;
8401;SDS011;4238;48.404;9.498;2022-08-21T11:18:32;2.90;;;2.70;;
8401;SDS011;4238;48.404;9.498;2022-08-21T11:24:03;3.60;;;3.20;;
8401;SDS011;4238;48.404;9.498;2022-08-21T11:26:43;3.75;;;3.45;;
8401;SDS011;4238;48.404;9.498;2022-08-21T11:29:16;4.97;;;3.30;;
8401;SDS011;4238;48.404;9.498;2022-08-21T11:31:50;3.60;;;3.17;;
8401;SDS011;4238;48.404;9.498;2022-08-21T11:34:32;3.60;;;3.30;;
8401;SDS011;4238;48.404;9.498;2022-08-21T11:37:20;3.78;;;3.45;;
8401;SDS011;4238;48.404;9.498;2022-08-21T11:40:03;3.50;;;3.20;;
8401;SDS011;4238;48.404;9.498;2022-08-21T11:42:37;3.53;;;3.20;;
8401;SDS011;4238;48.404;9.498;2022-08-21T11:45:13;3.28;;;3.05;;
8401;SDS011;4238;48.404;9.498;2022-08-21T11:47:51;3.70;;;3.00;;
8401;SDS011;4238;48.404;9.498;2022-08-21T11:50:25;4.30;;;3.20;;
8401;SDS011;4238;48.404;9.498;2022-08-21T11:52:55;3.42;;;3.03;;
8401;SDS011;4238;48.404;9.498;2022-08-21T11:55:28;4.63;;;3.33;;
8401;SDS011;4238;48.404;9.498;2022-08-21T11:58:00;3.30;;;3.10;;
8401;SDS011;4238;48.404;9.498;2022-08-21T12:00:32;4.18;;;3.25;;
8401;SDS011;4238;48.404;9.498;2022-08-21T12:03:06;3.50;;;3.17;;
8401;SDS011;4238;48.404;9.498;2022-08-21T12:05:38;4.18;;;3.10;;
8401;SDS011;4238;48.404;9.498;2022-08-21T12:08:10;3.35;;;3.05;;
8401;SDS011;4238;48.404;9.498;2022-08-21T12:10:42;3.70;;;3.40;;
8401;SDS011;4238;48.404;9.498;2022-08-21T12:13:22;3.65;;;3.15;;
8401;SDS011;4238;48.404;9.498;2022-08-21T12:15:51;3.72;;;3.30;;
8401;SDS011;4238;48.404;9.498;2022-08-21T12:18:22;3.58;;;3.10;;
8401;SDS011;4238;48.404;9.498;2022-08-21T12:21:03;3.30;;;3.05;;
8401;SDS011;4238;48.404;9.498;2022-08-21T12:23:43;4.72;;;3.35;;
8401;SDS011;4238;48.404;9.498;2022-08-21T12:26:26;4.15;;;3.63;;
8401;SDS011;4238;48.404;9.498;2022-08-21T12:29:04;4.07;;;3.67;;
8401;SDS011;4238;48.404;9.498;2022-08-21T12:31:36;3.78;;;3.50;;
8401;SDS011;4238;48.404;9.498;2022-08-21T12:34:15;4.03;;;3.38;;
8401;SDS011;4238;48.404;9.498;2022-08-21T12:36:44;3.50;;;3.20;;
8401;SDS011;4238;48.404;9.498;2022-08-21T12:39:15;3.50;;;3.20;;
8401;SDS011;4238;48.404;9.498;2022-08-21T12:41:49;4.50;;;3.55;;
8401;SDS011;4238;48.404;9.498;2022-08-21T12:44:21;3.70;;;3.40;;
8401;SDS011;4238;48.404;9.498;2022-08-21T12:46:55;4.13;;;3.55;;
8401;SDS011;4238;48.404;9.498;2022-08-21T12:49:27;3.38;;;3.10;;
8401;SDS011;4238;48.404;9.498;2022-08-21T12:52:00;3.53;;;3.22;;
8401;SDS011;4238;48.404;9.498;2022-08-21T12:54:30;3.60;;;3.22;;
8401;SDS011;4238;48.404;9.498;2022-08-21T12:57:05;3.78;;;3.47;;
8401;SDS011;4238;48.404;9.498;2022-08-21T12:59:36;4.50;;;3.42;;
8401;SDS011;4238;48.404;9.498;2022-08-21T13:02:06;4.05;;;3.63;;
8401;SDS011;4238;48.404;9.498;2022-08-21T13:04:41;3.35;;;3.08;;
8401;SDS011;4238;48.404;9.498;2022-08-21T13:07:10;3.97;;;3.67;;
8401;SDS011;4238;48.404;9.498;2022-08-21T13:09:40;3.58;;;3.38;;
8401;SDS011;4238;48.404;9.498;2022-08-21T13:12:14;3.53;;;3.22;;
8401;SDS011;4238;48.404;9.498;2022-08-21T13:14:42;3.78;;;3.47;;
8401;SDS011;4238;48.404;9.498;2022-08-21T13:17:12;4.03;;;3.47;;
8401;SDS011;4238;48.404;9.498;2022-08-21T13:19:42;4.45;;;3.88;;
8401;SDS011;4238;48.404;9.498;2022-08-21T13:22:19;3.45;;;3.15;;
8401;SDS011;4238;48.404;9.498;2022-08-21T13:24:47;3.72;;;3.42;;
8401;SDS011;4238;48.404;9.498;2022-08-21T13:27:17;3.97;;;3.63;;
8401;SDS011;4238;48.404;9.498;2022-08-21T13:29:45;3.50;;;3.20;;
8401;SDS011;4238;48.404;9.498;2022-08-21T13:32:20;5.70;;;3.90;;
8401;SDS011;4238;48.404;9.498;2022-08-21T13:34:51;3.42;;;3.20;;
8401;SDS011;4238;48.404;9.498;2022-08-21T13:37:18;3.47;;;3.17;;
8401;SDS011;4238;48.404;9.498;2022-08-21T13:39:49;3.72;;;3.42;;
8401;SDS011;4238;48.404;9.498;2022-08-21T13:42:19;4.15;;;3.35;;
8401;SDS011;4238;48.404;9.498;2022-08-21T13:44:50;3.80;;;3.60;;
8401;SDS011;4238;48.404;9.498;2022-08-21T13:47:19;3.25;;;3.00;;
8401;SDS011;4238;48.404;9.498;2022-08-21T13:49:47;3.17;;;2.97;;
8401;SDS011;4238;48.404;9.498;2022-08-21T13:52:16;4.53;;;3.33;;
8401;SDS011;4238;48.404;9.498;2022-08-21T13:54:51;4.53;;;3.38;;
8401;SDS011;4238;48.404;9.498;2022-08-21T13:57:27;3.83;;;3.42;;
8401;SDS011;4238;48.404;9.498;2022-08-21T14:00:09;3.70;;;3.35;;
8401;SDS011;4238;48.404;9.498;2022-08-21T14:02:39;3.75;;;3.40;;
8401;SDS011;4238;48.404;9.498;2022-08-21T14:05:13;4.30;;;3.90;;
8401;SDS011;4238;48.404;9.498;2022-08-21T14:07:42;4.00;;;3.60;;
8401;SDS011;4238;48.404;9.498;2022-08-21T14:10:12;5.53;;;3.35;;
8401;SDS011;4238;48.404;9.498;2022-08-21T14:12:43;4.25;;;3.22;;
8401;SDS011;4238;48.404;9.498;2022-08-21T14:15:14;4.53;;;3.20;;
8401;SDS011;4238;48.404;9.498;2022-08-21T14:17:44;4.03;;;3.50;;
8401;SDS011;4238;48.404;9.498;2022-08-21T14:20:12;3.67;;;3.38;;
8401;SDS011;4238;48.404;9.498;2022-08-21T14:22:52;4.10;;;3.63;;
8401;SDS011;4238;48.404;9.498;2022-08-21T14:25:26;4.10;;;3.60;;
8401;SDS011;4238;48.404;9.498;2022-08-21T14:28:02;6.90;;;3.70;;
8401;SDS011;4238;48.404;9.498;2022-08-21T14:30:35;4.82;;;3.22;;
8401;SDS011;4238;48.404;9.498;2022-08-21T14:33:04;4.70;;;3.63;;
8401;SDS011;4238;48.404;9.498;2022-08-21T14:35:36;4.60;;;3.70;;
8401;SDS011;4238;48.404;9.498;2022-08-21T14:38:11;4.57;;;3.75;;
8401;SDS011;4238;48.404;9.498;2022-08-21T14:40:46;3.42;;;3.13;;
8401;SDS011;4238;48.404;9.498;2022-08-21T14:43:17;4.28;;;3.88;;
8401;SDS011;4238;48.404;9.498;2022-08-21T14:45:45;4.55;;;3.35;;
8401;SDS011;4238;48.404;9.498;2022-08-21T14:48:12;3.75;;;3.45;;
8401;SDS011;4238;48.404;9.498;2022-08-21T14:50:39;4.43;;;3.95;;
8401;SDS011;4238;48.404;9.498;2022-08-21T14:53:06;3.53;;;3.22;;
8401;SDS011;4238;48.404;9.498;2022-08-21T14:55:34;3.47;;;3.17;;
8401;SDS011;4238;48.404;9.498;2022-08-21T14:58:23;3.80;;;3.50;;
8401;SDS011;4238;48.404;9.498;2022-08-21T15:00:52;4.05;;;3.50;;
8401;SDS011;4238;48.404;9.498;2022-08-21T15:03:23;3.75;;;3.45;;
8401;SDS011;4238;48.404;9.498;2022-08-21T15:05:50;4.13;;;3.75;;
8401;SDS011;4238;48.404;9.498;2022-08-21T15:08:17;3.83;;;3.47;;
8401;SDS011;4238;48.404;9.498;2022-08-21T15:10:44;5.00;;;3.50;;
8401;SDS011;4238;48.404;9.498;2022-08-21T15:13:12;4.05;;;3.65;;
8401;SDS011;4238;48.404;9.498;2022-08-21T15:15:41;4.72;;;3.55;;
8401;SDS011;4238;48.404;9.498;2022-08-21T15:18:12;3.33;;;3.03;;
8401;SDS011;4238;48.404;9.498;2022-08-21T15:20:39;5.50;;;3.78;;
8401;SDS011;4238;48.404;9.498;2022-08-21T15:23:07;3.85;;;3.45;;
8401;SDS011;4238;48.404;9.498;2022-08-21T15:25:35;5.60;;;4.00;;
8401;SDS011;4238;48.404;9.498;2022-08-21T15:28:02;3.72;;;3.42;;
8401;SDS011;4238;48.404;9.498;2022-08-21T15:30:30;3.75;;;3.40;;
8401;SDS011;4238;48.404;9.498;2022-08-21T15:32:58;3.72;;;3.15;;
8401;SDS011;4238;48.404;9.498;2022-08-21T15:35:25;5.18;;;3.70;;